createdAt,value
2018-10-05T00:00:40.446Z,0.00
2018-10-05T00:01:40.419Z,0.00
2018-10-05T00:02:40.396Z,0.00
2018-10-05T00:03:40.370Z,0.00
2018-10-05T00:04:40.347Z,0.00
2018-10-05T00:05:40.322Z,0.00
2018-10-05T00:06:40.296Z,0.00
2018-10-05T00:07:40.274Z,0.00
2018-10-05T00:08:40.248Z,0.00
2018-10-05T00:09:40.226Z,0.00
2018-10-05T00:10:40.233Z,0.00
2018-10-05T00:11:40.174Z,0.00
2018-10-05T00:12:40.155Z,0.00
2018-10-05T00:13:40.124Z,0.00
2018-10-05T00:14:40.100Z,0.00
2018-10-05T00:15:40.074Z,0.00
2018-10-05T00:16:40.049Z,0.00
2018-10-05T00:17:40.026Z,0.00
2018-10-05T00:18:40.000Z,0.00
2018-10-05T00:19:39.978Z,0.00
2018-10-05T00:20:39.951Z,0.00
2018-10-05T00:21:39.925Z,0.00
2018-10-05T00:22:39.902Z,0.00
2018-10-05T00:23:39.876Z,0.00
2018-10-05T00:24:39.852Z,0.00
2018-10-05T00:25:39.826Z,0.00
2018-10-05T00:26:39.801Z,0.00
2018-10-05T00:27:39.777Z,0.00
2018-10-05T00:28:39.754Z,0.00
2018-10-05T00:29:39.726Z,0.00
2018-10-05T00:30:39.702Z,0.00
2018-10-05T00:31:39.677Z,0.00
2018-10-05T00:32:39.653Z,0.00
2018-10-05T00:33:39.629Z,0.00
2018-10-05T00:34:39.601Z,0.00
2018-10-05T00:35:39.579Z,0.00
2018-10-05T00:36:39.554Z,0.00
2018-10-05T00:37:39.527Z,0.00
2018-10-05T00:38:39.503Z,0.00
2018-10-05T00:39:39.520Z,0.00
2018-10-05T00:40:39.456Z,0.00
2018-10-05T00:41:39.428Z,0.00
2018-10-05T00:42:39.419Z,0.00
2018-10-05T00:43:39.377Z,0.00
2018-10-05T00:44:39.354Z,0.00
2018-10-05T00:45:39.328Z,0.00
2018-10-05T00:46:39.310Z,0.00
2018-10-05T00:47:39.279Z,0.00
2018-10-05T00:48:39.253Z,0.00
2018-10-05T00:49:39.229Z,0.00
2018-10-05T00:50:39.204Z,0.00
2018-10-05T00:51:39.179Z,0.00
2018-10-05T00:52:39.155Z,0.00
2018-10-05T00:53:39.127Z,0.00
2018-10-05T00:54:39.103Z,0.00
2018-10-05T00:55:39.078Z,0.00
2018-10-05T00:56:39.053Z,0.00
2018-10-05T00:57:39.028Z,0.00
2018-10-05T00:58:39.004Z,0.00
2018-10-05T00:59:38.982Z,0.00
2018-10-05T01:00:38.957Z,0.00
2018-10-05T01:01:38.953Z,0.00
2018-10-05T01:02:38.904Z,0.00
2018-10-05T01:03:38.878Z,0.00
2018-10-05T01:04:38.853Z,0.00
2018-10-05T01:05:38.829Z,0.00
2018-10-05T01:06:38.805Z,0.00
2018-10-05T01:07:38.779Z,0.00
2018-10-05T01:08:38.755Z,0.00
2018-10-05T01:09:38.728Z,0.00
2018-10-05T01:10:38.703Z,0.00
2018-10-05T01:11:38.681Z,0.00
2018-10-05T01:12:38.654Z,0.00
2018-10-05T01:13:38.629Z,0.00
2018-10-05T01:14:38.605Z,0.00
2018-10-05T01:15:38.579Z,0.00
2018-10-05T01:16:38.554Z,0.00
2018-10-05T01:17:38.527Z,0.00
2018-10-05T01:18:38.503Z,0.00
2018-10-05T01:19:38.478Z,0.00
2018-10-05T01:20:38.454Z,0.00
2018-10-05T01:21:38.428Z,0.00
2018-10-05T01:22:38.404Z,0.00
2018-10-05T01:23:38.377Z,0.00
2018-10-05T01:24:38.373Z,0.00
2018-10-05T01:25:38.327Z,0.00
2018-10-05T01:26:38.305Z,0.00
2018-10-05T01:27:38.279Z,0.00
2018-10-05T01:28:38.253Z,0.00
2018-10-05T01:29:38.226Z,0.00
2018-10-05T01:30:38.202Z,0.00
2018-10-05T01:31:38.176Z,0.00
2018-10-05T01:32:38.154Z,0.00
2018-10-05T01:33:38.124Z,0.00
2018-10-05T01:34:38.101Z,0.00
2018-10-05T01:35:38.076Z,0.00
2018-10-05T01:36:38.052Z,0.00
2018-10-05T01:37:38.027Z,0.00
2018-10-05T01:38:38.001Z,0.00
2018-10-05T01:39:37.975Z,0.00
2018-10-05T01:40:37.950Z,0.00
2018-10-05T01:41:37.922Z,0.00
2018-10-05T01:42:37.899Z,0.00
2018-10-05T01:43:37.873Z,0.00
2018-10-05T01:44:37.847Z,0.00
2018-10-05T01:45:37.822Z,0.00
2018-10-05T01:46:37.795Z,0.00
2018-10-05T01:47:37.771Z,0.00
2018-10-05T01:48:37.746Z,0.00
2018-10-05T01:49:37.717Z,0.00
2018-10-05T01:50:37.694Z,0.00
2018-10-05T01:51:37.669Z,0.00
2018-10-05T01:52:37.643Z,0.00
2018-10-05T01:53:37.617Z,0.00
2018-10-05T01:54:37.590Z,0.00
2018-10-05T01:55:37.566Z,0.00
2018-10-05T01:56:37.543Z,0.00
2018-10-05T01:57:37.514Z,0.00
2018-10-05T01:58:37.489Z,0.00
2018-10-05T01:59:37.462Z,0.00
2018-10-05T02:00:37.438Z,0.00
2018-10-05T02:01:37.412Z,0.00
2018-10-05T02:02:37.460Z,0.00
2018-10-05T02:03:37.361Z,0.00
2018-10-05T02:04:37.335Z,0.00
2018-10-05T02:05:37.306Z,0.00
2018-10-05T02:06:37.284Z,0.00
2018-10-05T02:07:37.257Z,0.00
2018-10-05T02:08:37.231Z,0.00
2018-10-05T02:09:37.205Z,0.00
2018-10-05T02:10:37.179Z,0.00
2018-10-05T02:11:37.160Z,0.00
2018-10-05T02:12:37.128Z,0.00
2018-10-05T02:13:37.101Z,0.00
2018-10-05T02:14:37.079Z,0.00
2018-10-05T02:15:37.050Z,0.00
2018-10-05T02:16:37.025Z,0.00
2018-10-05T02:17:36.998Z,0.00
2018-10-05T02:18:36.972Z,0.00
2018-10-05T02:19:36.947Z,0.00
2018-10-05T02:20:36.922Z,0.00
2018-10-05T02:21:36.896Z,0.00
2018-10-05T02:22:36.868Z,0.00
2018-10-05T02:23:36.843Z,0.00
2018-10-05T02:24:36.816Z,0.00
2018-10-05T02:25:36.789Z,0.00
2018-10-05T02:26:36.765Z,0.00
2018-10-05T02:27:36.754Z,0.00
2018-10-05T02:28:36.712Z,0.00
2018-10-05T02:29:36.686Z,0.00
2018-10-05T02:30:36.664Z,0.00
2018-10-05T02:31:36.634Z,0.00
2018-10-05T02:32:36.611Z,0.00
2018-10-05T02:33:36.582Z,0.00
2018-10-05T02:34:36.556Z,0.00
2018-10-05T02:35:36.540Z,0.00
2018-10-05T02:36:36.504Z,0.00
2018-10-05T02:37:36.476Z,0.00
2018-10-05T02:38:36.451Z,0.00
2018-10-05T02:39:36.425Z,0.00
2018-10-05T02:40:36.399Z,0.00
2018-10-05T02:41:36.388Z,0.00
2018-10-05T02:42:36.349Z,0.00
2018-10-05T02:43:36.321Z,0.00
2018-10-05T02:44:36.310Z,0.00
2018-10-05T02:45:36.267Z,0.00
2018-10-05T02:46:36.243Z,0.00
2018-10-05T02:47:36.215Z,0.00
2018-10-05T02:48:36.190Z,0.00
2018-10-05T02:49:36.163Z,0.00
2018-10-05T02:50:36.136Z,0.00
2018-10-05T02:51:36.110Z,0.00
2018-10-05T02:52:36.084Z,0.00
2018-10-05T02:53:36.057Z,0.00
2018-10-05T02:54:36.034Z,0.00
2018-10-05T02:55:36.007Z,0.00
2018-10-05T02:56:35.978Z,0.00
2018-10-05T02:57:35.951Z,0.00
2018-10-05T02:58:35.930Z,0.00
2018-10-05T02:59:35.898Z,0.00
2018-10-05T03:00:35.872Z,0.00
2018-10-05T03:01:35.845Z,0.00
2018-10-05T03:02:35.820Z,0.00
2018-10-05T03:03:35.795Z,0.00
2018-10-05T03:04:35.769Z,0.00
2018-10-05T03:05:35.743Z,0.00
2018-10-05T03:06:35.714Z,0.00
2018-10-05T03:07:35.687Z,0.00
2018-10-05T03:08:35.662Z,0.00
2018-10-05T03:09:35.634Z,0.00
2018-10-05T03:10:35.607Z,0.00
2018-10-05T03:11:35.580Z,0.00
2018-10-05T03:12:35.554Z,0.00
2018-10-05T03:13:35.529Z,0.00
2018-10-05T03:14:35.501Z,0.00
2018-10-05T03:15:35.475Z,0.00
2018-10-05T03:16:35.448Z,0.00
2018-10-05T03:17:35.421Z,0.00
2018-10-05T03:18:35.399Z,0.00
2018-10-05T03:19:35.372Z,0.00
2018-10-05T03:20:35.343Z,0.00
2018-10-05T03:21:35.316Z,0.00
2018-10-05T03:22:35.289Z,0.00
2018-10-05T03:23:35.261Z,0.00
2018-10-05T03:24:35.235Z,0.00
2018-10-05T03:25:35.209Z,0.00
2018-10-05T03:26:35.181Z,0.00
2018-10-05T03:27:35.155Z,0.00
2018-10-05T03:28:35.128Z,0.00
2018-10-05T03:29:35.102Z,0.00
2018-10-05T03:30:35.078Z,0.00
2018-10-05T03:31:35.049Z,0.00
2018-10-05T03:32:35.023Z,0.00
2018-10-05T03:33:34.994Z,0.00
2018-10-05T03:34:34.969Z,0.00
2018-10-05T03:35:34.945Z,0.00
2018-10-05T03:36:34.917Z,0.00
2018-10-05T03:37:34.887Z,0.00
2018-10-05T03:38:34.860Z,0.00
2018-10-05T03:39:34.836Z,0.00
2018-10-05T03:40:34.811Z,0.00
2018-10-05T03:41:34.781Z,0.00
2018-10-05T03:42:34.754Z,0.00
2018-10-05T03:43:34.728Z,0.00
2018-10-05T03:44:34.701Z,0.00
2018-10-05T03:45:34.672Z,0.00
2018-10-05T03:46:34.647Z,0.00
2018-10-05T03:47:34.623Z,0.00
2018-10-05T03:48:34.593Z,0.00
2018-10-05T03:49:34.565Z,0.00
2018-10-05T03:50:34.539Z,0.00
2018-10-05T03:51:34.515Z,0.00
2018-10-05T03:52:34.489Z,0.00
2018-10-05T03:53:34.459Z,0.00
2018-10-05T03:54:34.433Z,0.00
2018-10-05T03:55:34.405Z,0.00
2018-10-05T03:56:34.379Z,0.00
2018-10-05T03:57:34.352Z,0.00
2018-10-05T03:58:34.324Z,0.00
2018-10-05T03:59:34.299Z,0.00
2018-10-05T04:00:34.269Z,0.00
2018-10-05T04:01:34.245Z,0.00
2018-10-05T04:02:34.215Z,0.00
2018-10-05T04:03:34.189Z,0.00
2018-10-05T04:04:34.163Z,0.00
2018-10-05T04:05:34.139Z,0.00
2018-10-05T04:06:34.106Z,0.00
2018-10-05T04:07:34.083Z,0.00
2018-10-05T04:08:34.053Z,0.00
2018-10-05T04:09:34.026Z,0.00
2018-10-05T04:10:34.001Z,0.00
2018-10-05T04:11:33.973Z,0.00
2018-10-05T04:12:33.946Z,0.00
2018-10-05T04:13:33.918Z,0.00
2018-10-05T04:14:33.892Z,0.00
2018-10-05T04:15:33.862Z,0.00
2018-10-05T04:16:33.838Z,0.00
2018-10-05T04:17:33.813Z,0.00
2018-10-05T04:18:33.783Z,0.00
2018-10-05T04:19:33.755Z,0.00
2018-10-05T04:20:33.729Z,0.00
2018-10-05T04:21:33.701Z,0.00
2018-10-05T04:22:33.674Z,0.00
2018-10-05T04:23:33.646Z,0.00
2018-10-05T04:24:33.621Z,0.00
2018-10-05T04:25:33.601Z,0.00
2018-10-05T04:26:33.566Z,0.00
2018-10-05T04:27:33.538Z,0.00
2018-10-05T04:28:33.512Z,0.00
2018-10-05T04:29:33.484Z,0.00
2018-10-05T04:30:33.458Z,0.00
2018-10-05T04:31:33.433Z,0.00
2018-10-05T04:32:33.402Z,0.00
2018-10-05T04:33:33.376Z,0.00
2018-10-05T04:34:33.352Z,0.00
2018-10-05T04:35:33.336Z,0.00
2018-10-05T04:36:33.296Z,0.00
2018-10-05T04:37:33.267Z,0.00
2018-10-05T04:38:33.241Z,0.00
2018-10-05T04:39:33.214Z,0.00
2018-10-05T04:40:33.188Z,0.00
2018-10-05T04:41:33.158Z,0.00
2018-10-05T04:42:33.133Z,0.00
2018-10-05T04:43:33.107Z,0.00
2018-10-05T04:44:33.080Z,0.00
2018-10-05T04:45:33.056Z,4.00
2018-10-05T04:46:33.024Z,4.00
2018-10-05T04:47:32.998Z,0.00
2018-10-05T04:48:32.971Z,4.00
2018-10-05T04:49:33.025Z,4.00
2018-10-05T04:50:32.945Z,4.00
2018-10-05T04:51:32.891Z,8.00
2018-10-05T04:52:32.865Z,8.00
2018-10-05T04:53:32.836Z,8.00
2018-10-05T04:54:32.810Z,12.00
2018-10-05T04:55:32.782Z,12.00
2018-10-05T04:56:32.796Z,16.00
2018-10-05T04:57:32.730Z,16.00
2018-10-05T04:58:32.704Z,20.00
2018-10-05T04:59:32.677Z,24.00
2018-10-05T05:00:32.652Z,28.00
2018-10-05T05:01:32.624Z,36.00
2018-10-05T05:02:32.598Z,40.00
2018-10-05T05:03:32.621Z,52.00
2018-10-05T05:04:32.544Z,56.00
2018-10-05T05:05:32.516Z,68.00
2018-10-05T05:06:32.490Z,80.00
2018-10-05T05:07:32.464Z,92.00
2018-10-05T05:08:32.438Z,108.00
2018-10-05T05:09:32.410Z,124.00
2018-10-05T05:10:32.383Z,140.00
2018-10-05T05:11:32.357Z,164.00
2018-10-05T05:12:32.330Z,188.00
2018-10-05T05:13:32.303Z,212.00
2018-10-05T05:14:32.278Z,240.00
2018-10-05T05:15:32.253Z,268.00
2018-10-05T05:16:32.226Z,304.00
2018-10-05T05:17:32.196Z,336.00
2018-10-05T05:18:32.171Z,372.00
2018-10-05T05:19:32.152Z,412.00
2018-10-05T05:20:32.119Z,448.00
2018-10-05T05:21:32.091Z,488.00
2018-10-05T05:22:32.070Z,532.00
2018-10-05T05:23:32.039Z,580.00
2018-10-05T05:24:32.014Z,636.00
2018-10-05T05:25:31.993Z,696.00
2018-10-05T05:26:31.959Z,756.00
2018-10-05T05:27:31.939Z,820.00
2018-10-05T05:28:31.907Z,884.00
2018-10-05T05:29:31.879Z,952.00
2018-10-05T05:30:31.854Z,1016.00
2018-10-05T05:31:31.826Z,1080.00
2018-10-05T05:32:31.801Z,1144.00
2018-10-05T05:33:31.847Z,1212.00
2018-10-05T05:34:31.747Z,1284.00
2018-10-05T05:35:31.728Z,1348.00
2018-10-05T05:36:31.696Z,1424.00
2018-10-05T05:37:31.672Z,1500.00
2018-10-05T05:38:31.643Z,1588.00
2018-10-05T05:39:31.616Z,1672.00
2018-10-05T05:40:31.591Z,1760.00
2018-10-05T05:41:31.562Z,1856.00
2018-10-05T05:42:31.542Z,1948.00
2018-10-05T05:43:31.511Z,2040.00
2018-10-05T05:44:31.484Z,2128.00
2018-10-05T05:45:31.456Z,2216.00
2018-10-05T05:46:31.432Z,2304.00
2018-10-05T05:47:31.407Z,2384.00
2018-10-05T05:48:31.377Z,2456.00
2018-10-05T05:49:31.350Z,2524.00
2018-10-05T05:50:31.333Z,2592.00
2018-10-05T05:51:31.297Z,2676.00
2018-10-05T05:52:31.275Z,2760.00
2018-10-05T05:53:31.242Z,2836.00
2018-10-05T05:54:31.257Z,2908.00
2018-10-05T05:55:31.190Z,2980.00
2018-10-05T05:56:31.164Z,3052.00
2018-10-05T05:57:31.137Z,3128.00
2018-10-05T05:58:31.112Z,3200.00
2018-10-05T05:59:31.083Z,3276.00
2018-10-05T06:00:31.058Z,3344.00
2018-10-05T06:01:31.033Z,3416.00
2018-10-05T06:02:31.004Z,3540.00
2018-10-05T06:03:30.978Z,3660.00
2018-10-05T06:04:30.951Z,3828.00
2018-10-05T06:05:30.924Z,3920.00
2018-10-05T06:06:30.898Z,3876.00
2018-10-05T06:07:30.872Z,3848.00
2018-10-05T06:08:30.845Z,3916.00
2018-10-05T06:09:30.816Z,3996.00
2018-10-05T06:10:30.790Z,4064.00
2018-10-05T06:11:30.766Z,4280.00
2018-10-05T06:12:30.738Z,4644.00
2018-10-05T06:13:30.713Z,4796.00
2018-10-05T06:14:30.685Z,4692.00
2018-10-05T06:15:30.662Z,4456.00
2018-10-05T06:16:30.703Z,4520.00
2018-10-05T06:17:30.605Z,5324.00
2018-10-05T06:18:30.580Z,6876.00
2018-10-05T06:19:30.552Z,7180.00
2018-10-05T06:20:30.526Z,6804.00
2018-10-05T06:21:30.527Z,6900.00
2018-10-05T06:22:30.787Z,7588.00
2018-10-05T06:23:30.449Z,7856.00
2018-10-05T06:24:30.424Z,8388.00
2018-10-05T06:25:30.396Z,8812.00
2018-10-05T06:26:30.373Z,9032.00
2018-10-05T06:27:30.428Z,9324.00
2018-10-05T06:28:30.323Z,9596.00
2018-10-05T06:29:30.298Z,9524.00
2018-10-05T06:30:30.300Z,9280.00
2018-10-05T06:31:30.248Z,9556.00
2018-10-05T06:32:30.225Z,10212.00
2018-10-05T06:33:30.201Z,10584.00
2018-10-05T06:34:30.178Z,10896.00
2018-10-05T06:35:30.154Z,10836.00
2018-10-05T06:36:30.131Z,8920.00
2018-10-05T06:37:30.107Z,7316.00
2018-10-05T06:38:30.083Z,9836.00
2018-10-05T06:39:30.061Z,10688.00
2018-10-05T06:40:30.045Z,11520.00
2018-10-05T06:41:30.014Z,12308.00
2018-10-05T06:42:30.106Z,12280.00
2018-10-05T06:43:29.968Z,11912.00
2018-10-05T06:44:29.945Z,13796.00
2018-10-05T06:45:29.932Z,14080.00
2018-10-05T06:46:29.898Z,13844.00
2018-10-05T06:47:29.876Z,13564.00
2018-10-05T06:48:29.853Z,13304.00
2018-10-05T06:49:29.829Z,11696.00
2018-10-05T06:50:29.807Z,9492.00
2018-10-05T06:51:29.785Z,10628.00
2018-10-05T06:52:29.762Z,14300.00
2018-10-05T06:53:29.739Z,14776.00
2018-10-05T06:54:29.721Z,15128.00
2018-10-05T06:55:29.695Z,15888.00
2018-10-05T06:56:29.673Z,16220.00
2018-10-05T06:57:29.650Z,16480.00
2018-10-05T06:58:29.628Z,16672.00
2018-10-05T06:59:29.608Z,16800.00
2018-10-05T07:00:29.586Z,16192.00
2018-10-05T07:01:29.700Z,13256.00
2018-10-05T07:02:29.539Z,13700.00
2018-10-05T07:03:29.518Z,16256.00
2018-10-05T07:04:29.494Z,16800.00
2018-10-05T07:05:29.471Z,15584.00
2018-10-05T07:06:29.448Z,11504.00
2018-10-05T07:07:29.534Z,12644.00
2018-10-05T07:08:29.405Z,17312.00
2018-10-05T07:09:29.384Z,17568.00
2018-10-05T07:10:29.360Z,18752.00
2018-10-05T07:11:29.351Z,17504.00
2018-10-05T07:12:29.315Z,16064.00
2018-10-05T07:13:29.292Z,13964.00
2018-10-05T07:14:29.269Z,10680.00
2018-10-05T07:15:29.248Z,9164.00
2018-10-05T07:16:29.229Z,9096.00
2018-10-05T07:17:29.203Z,9612.00
2018-10-05T07:18:29.180Z,7768.00
2018-10-05T07:19:29.159Z,8532.00
2018-10-05T07:20:29.138Z,13812.00
2018-10-05T07:21:29.220Z,17440.00
2018-10-05T07:22:29.136Z,16864.00
2018-10-05T07:23:29.069Z,15260.00
2018-10-05T07:24:29.049Z,17568.00
2018-10-05T07:25:29.024Z,16796.00
2018-10-05T07:26:29.004Z,22592.00
2018-10-05T07:27:28.981Z,22976.00
2018-10-05T07:28:29.103Z,23552.00
2018-10-05T07:29:28.935Z,23968.00
2018-10-05T07:30:28.917Z,21152.00
2018-10-05T07:31:28.892Z,24288.00
2018-10-05T07:32:28.869Z,24384.00
2018-10-05T07:33:28.847Z,24768.00
2018-10-05T07:34:28.825Z,22976.00
2018-10-05T07:35:28.804Z,24704.00
2018-10-05T07:36:28.784Z,25056.00
2018-10-05T07:37:28.845Z,25600.00
2018-10-05T07:38:28.740Z,25312.00
2018-10-05T07:39:28.720Z,24896.00
2018-10-05T07:40:28.698Z,25216.00
2018-10-05T07:41:28.682Z,26304.00
2018-10-05T07:42:28.656Z,27616.00
2018-10-05T07:43:28.637Z,27840.00
2018-10-05T07:44:28.616Z,27552.00
2018-10-05T07:45:28.596Z,24256.00
2018-10-05T07:46:28.577Z,25472.00
2018-10-05T07:47:28.556Z,26016.00
2018-10-05T07:48:28.536Z,26560.00
2018-10-05T07:49:28.516Z,26336.00
2018-10-05T07:50:28.496Z,26112.00
2018-10-05T07:51:28.477Z,27136.00
2018-10-05T07:52:28.457Z,28416.00
2018-10-05T07:53:28.436Z,29216.00
2018-10-05T07:54:28.417Z,28768.00
2018-10-05T07:55:28.397Z,28064.00
2018-10-05T07:56:28.381Z,29280.00
2018-10-05T07:57:28.420Z,31104.00
2018-10-05T07:58:28.342Z,31712.00
2018-10-05T07:59:28.320Z,30752.00
2018-10-05T08:00:28.303Z,29408.00
2018-10-05T08:01:28.281Z,29856.00
2018-10-05T08:02:28.263Z,31008.00
2018-10-05T08:03:28.244Z,31232.00
2018-10-05T08:04:28.225Z,30304.00
2018-10-05T08:05:28.204Z,29856.00
2018-10-05T08:06:28.185Z,29120.00
2018-10-05T08:07:28.172Z,30048.00
2018-10-05T08:08:28.148Z,32320.00
2018-10-05T08:09:28.185Z,34272.00
2018-10-05T08:10:28.113Z,33440.00
2018-10-05T08:11:28.092Z,30944.00
2018-10-05T08:12:28.073Z,29568.00
2018-10-05T08:13:28.055Z,29760.00
2018-10-05T08:14:28.037Z,30176.00
2018-10-05T08:15:28.016Z,28832.00
2018-10-05T08:16:28.000Z,27936.00
2018-10-05T08:17:27.981Z,28480.00
2018-10-05T08:18:27.962Z,29312.00
2018-10-05T08:19:27.944Z,29280.00
2018-10-05T08:20:27.925Z,27712.00
2018-10-05T08:21:27.918Z,26784.00
2018-10-05T08:22:27.888Z,24352.00
2018-10-05T08:23:27.872Z,23776.00
2018-10-05T08:24:27.853Z,25312.00
2018-10-05T08:25:27.834Z,27424.00
2018-10-05T08:26:27.816Z,30656.00
2018-10-05T08:27:27.802Z,32544.00
2018-10-05T08:28:27.782Z,34560.00
2018-10-05T08:29:27.762Z,34656.00
2018-10-05T08:30:27.744Z,34880.00
2018-10-05T08:31:27.731Z,38272.00
2018-10-05T08:32:27.707Z,42400.00
2018-10-05T08:33:27.689Z,44192.00
2018-10-05T08:34:27.734Z,44064.00
2018-10-05T08:35:27.655Z,45568.00
2018-10-05T08:36:27.636Z,47008.00
2018-10-05T08:37:27.619Z,44352.00
2018-10-05T08:38:27.599Z,38560.00
2018-10-05T08:39:27.583Z,36640.00
2018-10-05T08:40:27.565Z,37824.00
2018-10-05T08:41:27.546Z,38336.00
2018-10-05T08:42:27.530Z,40256.00
2018-10-05T08:43:27.513Z,41344.00
2018-10-05T08:44:27.494Z,39264.00
2018-10-05T08:45:27.477Z,35744.00
2018-10-05T08:46:27.459Z,35712.00
2018-10-05T08:47:27.440Z,37920.00
2018-10-05T08:48:27.424Z,40128.00
2018-10-05T08:49:27.406Z,40384.00
2018-10-05T08:50:27.390Z,38752.00
2018-10-05T08:51:27.382Z,37856.00
2018-10-05T08:52:27.353Z,36864.00
2018-10-05T08:53:27.334Z,34720.00
2018-10-05T08:54:27.316Z,34016.00
2018-10-05T08:55:27.300Z,33696.00
2018-10-05T08:56:27.283Z,34944.00
2018-10-05T08:57:27.264Z,36896.00
2018-10-05T08:58:27.250Z,36448.00
2018-10-05T08:59:27.229Z,36576.00
2018-10-05T09:00:27.234Z,32256.00
2018-10-05T09:01:27.195Z,29952.00
2018-10-05T09:02:27.177Z,30752.00
2018-10-05T09:03:27.159Z,33280.00
2018-10-05T09:04:27.143Z,34272.00
2018-10-05T09:05:27.125Z,33248.00
2018-10-05T09:06:27.107Z,31872.00
2018-10-05T09:07:27.090Z,31552.00
2018-10-05T09:08:27.073Z,31744.00
2018-10-05T09:09:27.059Z,29344.00
2018-10-05T09:10:27.043Z,27072.00
2018-10-05T09:11:27.075Z,26688.00
2018-10-05T09:12:27.004Z,26720.00
2018-10-05T09:13:26.997Z,28448.00
2018-10-05T09:14:26.971Z,31296.00
2018-10-05T09:15:26.956Z,32416.00
2018-10-05T09:16:26.937Z,31904.00
2018-10-05T09:17:26.919Z,30528.00
2018-10-05T09:18:26.906Z,30784.00
2018-10-05T09:19:26.887Z,34464.00
2018-10-05T09:20:26.868Z,36800.00
2018-10-05T09:21:26.852Z,36960.00
2018-10-05T09:22:26.835Z,34240.00
2018-10-05T09:23:26.821Z,27840.00
2018-10-05T09:24:26.802Z,23104.00
2018-10-05T09:25:26.784Z,21152.00
2018-10-05T09:26:26.767Z,23488.00
2018-10-05T09:27:26.751Z,30336.00
2018-10-05T09:28:26.734Z,35136.00
2018-10-05T09:29:26.717Z,36320.00
2018-10-05T09:30:26.731Z,36768.00
2018-10-05T09:31:26.683Z,34752.00
2018-10-05T09:32:26.666Z,32960.00
2018-10-05T09:33:26.655Z,34496.00
2018-10-05T09:34:26.633Z,38848.00
2018-10-05T09:35:26.617Z,42976.00
2018-10-05T09:36:26.599Z,42144.00
2018-10-05T09:37:26.661Z,44288.00
2018-10-05T09:38:26.565Z,46496.00
2018-10-05T09:39:26.549Z,49152.00
2018-10-05T09:40:26.535Z,50048.00
2018-10-05T09:41:26.516Z,52032.00
2018-10-05T09:42:26.500Z,55232.00
2018-10-05T09:43:26.482Z,56832.00
2018-10-05T09:44:26.469Z,57024.00
2018-10-05T09:45:26.452Z,60128.00
2018-10-05T09:46:26.433Z,59872.00
2018-10-05T09:47:26.417Z,57504.00
2018-10-05T09:48:26.401Z,55840.00
2018-10-05T09:49:26.383Z,52832.00
2018-10-05T09:50:26.365Z,52192.00
2018-10-05T09:51:26.350Z,53184.00
2018-10-05T09:52:26.636Z,59232.00
2018-10-05T09:53:26.316Z,60640.00
2018-10-05T09:54:26.299Z,58208.00
2018-10-05T09:55:26.281Z,56896.00
2018-10-05T09:56:26.264Z,56384.00
2018-10-05T09:57:26.248Z,57600.00
2018-10-05T09:58:26.233Z,59552.00
2018-10-05T09:59:26.213Z,61184.00
2018-10-05T10:00:26.194Z,61216.00
2018-10-05T10:01:26.179Z,60768.00
2018-10-05T10:02:26.163Z,59008.00
2018-10-05T10:03:26.178Z,57056.00
2018-10-05T10:04:26.130Z,58848.00
2018-10-05T10:05:26.110Z,61184.00
2018-10-05T10:06:26.094Z,60768.00
2018-10-05T10:07:26.076Z,58848.00
2018-10-05T10:08:26.109Z,56672.00
2018-10-05T10:09:26.042Z,53888.00
2018-10-05T10:10:26.025Z,49632.00
2018-10-05T10:11:26.011Z,46816.00
2018-10-05T10:12:25.990Z,46688.00
2018-10-05T10:13:25.975Z,47744.00
2018-10-05T10:14:25.957Z,51936.00
2018-10-05T10:15:25.941Z,57088.00
2018-10-05T10:16:25.948Z,58816.00
2018-10-05T10:17:25.906Z,56256.00
2018-10-05T10:18:25.889Z,51648.00
2018-10-05T10:19:25.870Z,49024.00
2018-10-05T10:20:25.856Z,47424.00
2018-10-05T10:21:25.838Z,46912.00
2018-10-05T10:22:25.822Z,47296.00
2018-10-05T10:23:25.804Z,48544.00
2018-10-05T10:24:25.789Z,51200.00
2018-10-05T10:25:25.771Z,53184.00
2018-10-05T10:26:25.755Z,55968.00
2018-10-05T10:27:25.739Z,55200.00
2018-10-05T10:28:25.802Z,53312.00
2018-10-05T10:29:25.746Z,50912.00
2018-10-05T10:30:25.688Z,49248.00
2018-10-05T10:31:25.670Z,49760.00
2018-10-05T10:32:25.656Z,50016.00
2018-10-05T10:33:25.639Z,50880.00
2018-10-05T10:34:25.691Z,50976.00
2018-10-05T10:35:25.614Z,51904.00
2018-10-05T10:36:25.589Z,52384.00
2018-10-05T10:37:25.572Z,51616.00
2018-10-05T10:38:25.556Z,48640.00
2018-10-05T10:39:25.540Z,46240.00
2018-10-05T10:40:25.524Z,44576.00
2018-10-05T10:41:25.506Z,44576.00
2018-10-05T10:42:25.496Z,48512.00
2018-10-05T10:43:25.473Z,49600.00
2018-10-05T10:44:25.478Z,48992.00
2018-10-05T10:45:25.440Z,45888.00
2018-10-05T10:46:25.423Z,41824.00
2018-10-05T10:47:25.407Z,37760.00
2018-10-05T10:48:25.391Z,35360.00
2018-10-05T10:49:25.398Z,34784.00
2018-10-05T10:50:25.358Z,35936.00
2018-10-05T10:51:25.343Z,38688.00
2018-10-05T10:52:25.323Z,41792.00
2018-10-05T10:53:25.305Z,43648.00
2018-10-05T10:54:25.288Z,41952.00
2018-10-05T10:55:25.272Z,39744.00
2018-10-05T10:56:25.396Z,37408.00
2018-10-05T10:57:25.237Z,37728.00
2018-10-05T10:58:25.219Z,39488.00
2018-10-05T10:59:25.203Z,43424.00
2018-10-05T11:00:25.186Z,44000.00
2018-10-05T11:01:25.166Z,43840.00
2018-10-05T11:02:25.151Z,44064.00
2018-10-05T11:03:25.133Z,43168.00
2018-10-05T11:04:25.226Z,40864.00
2018-10-05T11:05:25.098Z,39904.00
2018-10-05T11:06:25.080Z,41952.00
2018-10-05T11:07:25.064Z,44992.00
2018-10-05T11:08:25.046Z,46176.00
2018-10-05T11:09:25.026Z,44832.00
2018-10-05T11:10:25.014Z,42560.00
2018-10-05T11:11:24.993Z,42304.00
2018-10-05T11:12:24.977Z,43680.00
2018-10-05T11:13:24.958Z,44896.00
2018-10-05T11:14:24.940Z,45728.00
2018-10-05T11:15:24.923Z,45888.00
2018-10-05T11:16:24.907Z,47296.00
2018-10-05T11:17:24.888Z,47840.00
2018-10-05T11:18:24.874Z,47648.00
2018-10-05T11:19:24.854Z,45760.00
2018-10-05T11:20:24.837Z,45376.00
2018-10-05T11:21:24.819Z,44416.00
2018-10-05T11:22:24.802Z,44544.00
2018-10-05T11:23:24.823Z,46240.00
2018-10-05T11:24:24.770Z,46848.00
2018-10-05T11:25:24.750Z,47552.00
2018-10-05T11:26:24.734Z,48096.00
2018-10-05T11:27:24.718Z,49056.00
2018-10-05T11:28:24.701Z,48672.00
2018-10-05T11:29:24.683Z,51072.00
2018-10-05T11:30:24.666Z,51232.00
2018-10-05T11:31:24.649Z,45024.00
2018-10-05T11:32:24.637Z,44448.00
2018-10-05T11:33:24.615Z,48096.00
2018-10-05T11:34:24.599Z,48288.00
2018-10-05T11:35:24.584Z,46752.00
2018-10-05T11:36:24.566Z,50880.00
2018-10-05T11:37:24.550Z,49824.00
2018-10-05T11:38:24.534Z,47040.00
2018-10-05T11:39:24.515Z,49824.00
2018-10-05T11:40:24.501Z,50400.00
2018-10-05T11:41:24.483Z,51360.00
2018-10-05T11:42:24.469Z,50880.00
2018-10-05T11:43:24.451Z,52320.00
2018-10-05T11:44:24.435Z,51488.00
2018-10-05T11:45:24.417Z,51040.00
2018-10-05T11:46:24.477Z,49664.00
2018-10-05T11:47:24.385Z,49312.00
2018-10-05T11:48:24.367Z,49472.00
2018-10-05T11:49:24.350Z,48288.00
2018-10-05T11:50:24.333Z,48064.00
2018-10-05T11:51:24.315Z,45824.00
2018-10-05T11:52:24.307Z,46784.00
2018-10-05T11:53:24.283Z,45728.00
2018-10-05T11:54:24.265Z,45920.00
2018-10-05T11:55:24.249Z,45248.00
2018-10-05T11:56:24.231Z,43840.00
2018-10-05T11:57:24.216Z,43360.00
2018-10-05T11:58:24.198Z,43360.00
2018-10-05T11:59:24.180Z,43296.00
2018-10-05T12:00:24.163Z,42976.00
2018-10-05T12:01:24.148Z,44288.00
2018-10-05T12:02:24.165Z,46464.00
2018-10-05T12:03:24.113Z,47776.00
2018-10-05T12:04:24.096Z,45824.00
2018-10-05T12:05:24.078Z,43168.00
2018-10-05T12:06:24.059Z,43168.00
2018-10-05T12:07:24.043Z,46016.00
2018-10-05T12:08:24.027Z,50208.00
2018-10-05T12:09:24.007Z,53664.00
2018-10-05T12:10:23.989Z,54400.00
2018-10-05T12:11:23.973Z,53280.00
2018-10-05T12:12:23.956Z,47968.00
2018-10-05T12:13:23.939Z,44896.00
2018-10-05T12:14:23.921Z,47168.00
2018-10-05T12:15:23.904Z,50688.00
2018-10-05T12:16:23.891Z,53248.00
2018-10-05T12:17:23.871Z,53120.00
2018-10-05T12:18:23.855Z,51168.00
2018-10-05T12:19:23.837Z,49888.00
2018-10-05T12:20:23.819Z,47328.00
2018-10-05T12:21:23.802Z,44192.00
2018-10-05T12:22:23.784Z,41792.00
2018-10-05T12:23:23.768Z,40864.00